Hollins, AL (35082)

7:31 AM CST on December 27, 2014 (GMT -0600)
Sycamore,Alabama | Change Station
CLOSE
Current Station
Personal Weather Station
Location: Sycamore, AL
Elevation: 552 ft
Nearby Weather Stations

Elev 552 ft 33.26 °N, 86.21 °W | Updated 3 seconds ago

Overcast
Overcast
41.5 °F
Feels Like 40 °F
N
3.1
Wind Variable Wind from SE
Gusts 3.1 mph

Today
High -- | Low -- °F
--% Chance of Precip.
Yesterday
High -- | Low -- °F
Precip. -- in
6:46 AM 4:44 PM
Waxing Crescent, 36% visible
Pressure 30.32 in
Visibility 10.0 miles
Clouds Scattered Clouds 7000 ft
Mostly Cloudy 9000 ft
Windchill 40 °F
Dew Point 39 °F
Humidity 90%
Rainfall 0.04 in
Snow Depth Not available.
UV 0 out of 12
Pollen .40 out of 12
Air Quality Not available.
Flu Activity Not available.
METAR KALX 271315Z AUTO 00000KT 10SM SCT070 BKN090 07/03 A3032 RMK AO2 T00670033

More Conditions Fewer Conditions

Pressure 30.32 in
Visibility 10.0 miles
Clouds Scattered Clouds 7000 ft
Mostly Cloudy 9000 ft
Windchill 40 °F
Dew Point 39 °F
Humidity 90%
Rainfall 0.04 in
Snow Depth Not available.
UV 0 out of 12
Pollen .40 out of 12
Air Quality Not available.
Flu Activity Not available.
METAR KALX 271315Z AUTO 00000KT 10SM SCT070 BKN090 07/03 A3032 RMK AO2 T00670033

More Conditions Fewer Conditions

10-Day Weather Forecast

Almanac

Astronomy

Dec. 27, 2014 Rise Set
Actual Time
Civil Twilight
Nautical Twilight
Astronomical Twilight
Moon
Length of Visible Light
Length of Day
Tomorrow will be .
, % of the Moon is Illuminated

Today's Extremes

State Highs State Lows

Community

WunderPhotos

Upload Photos

1,780,894 photos uploaded!

WunderBlogs® & News

Nearby

Air Quality

  Air Quality AQ Index Pollutant
Not available.

Snow Depth

Station Depth Elevation

Earthquake Activity

City Distance Mag. Time & Date
Minimum magnitude displayed is 2.5.

Coastal Water Temperatures

Place Temperature

Nearby Weather Stations